createdAt,value
2019-01-27T00:00:54.324Z,98262.70
2019-01-27T00:05:50.330Z,98254.21
2019-01-27T00:10:46.272Z,98245.28
2019-01-27T00:15:42.181Z,98228.16
2019-01-27T00:20:38.106Z,98217.95
2019-01-27T00:25:34.069Z,98208.34
2019-01-27T00:30:29.965Z,98202.08
2019-01-27T00:35:25.872Z,98184.96
2019-01-27T00:40:21.885Z,98178.80
2019-01-27T00:45:18.913Z,98166.83
2019-01-27T00:50:17.718Z,98151.50
2019-01-27T00:55:21.948Z,98133.08
2019-01-27T01:00:21.454Z,98129.66
2019-01-27T01:05:17.465Z,98116.09
2019-01-27T01:10:16.781Z,98119.60
2019-01-27T01:15:13.391Z,98108.94
2019-01-27T01:20:12.404Z,98095.25
2019-01-27T01:25:11.411Z,98080.40
2019-01-27T01:30:10.718Z,98074.95
2019-01-27T01:35:08.537Z,98068.66
2019-01-27T01:40:08.165Z,98050.52
2019-01-27T01:45:11.060Z,98048.45
2019-01-27T01:50:07.071Z,98038.19
2019-01-27T01:55:04.872Z,98029.46
2019-01-27T02:00:01.430Z,98021.17
2019-01-27T02:04:57.412Z,98013.80
2019-01-27T02:09:53.349Z,98012.15
2019-01-27T02:14:50.000Z,97995.13
2019-01-27T02:19:45.883Z,97994.58
2019-01-27T02:24:41.807Z,97978.45
2019-01-27T02:29:37.734Z,97955.68
2019-01-27T02:34:33.649Z,97955.68
2019-01-27T02:39:29.552Z,97938.84
2019-01-27T02:44:26.893Z,97934.69
2019-01-27T02:49:22.901Z,97926.14
2019-01-27T02:54:18.819Z,97912.00
2019-01-27T02:59:14.810Z,97901.95
2019-01-27T03:04:10.822Z,97890.34
2019-01-27T03:09:09.459Z,97878.37
2019-01-27T03:14:10.834Z,97870.20
2019-01-27T03:19:06.837Z,97860.91
2019-01-27T03:24:03.134Z,97861.05
2019-01-27T03:28:59.171Z,97851.66
2019-01-27T03:33:55.134Z,97840.67
2019-01-27T03:38:51.048Z,97831.28
2019-01-27T03:43:46.975Z,97820.27
2019-01-27T03:48:43.038Z,97812.63
2019-01-27T03:53:38.935Z,97803.79
2019-01-27T03:58:34.843Z,97802.09
2019-01-27T04:03:30.759Z,97799.06
2019-01-27T04:08:26.687Z,97793.45
2019-01-27T04:13:22.583Z,97779.77
2019-01-27T04:18:18.512Z,97768.02
2019-01-27T04:23:14.432Z,97756.66
2019-01-27T04:28:11.496Z,97747.46
2019-01-27T04:33:07.504Z,97742.50
2019-01-27T04:38:03.509Z,97731.88
2019-01-27T04:42:59.422Z,97721.77
2019-01-27T04:47:55.314Z,97721.16
2019-01-27T04:52:51.352Z,97706.30
2019-01-27T04:57:47.452Z,97695.69
2019-01-27T05:02:45.254Z,97679.91
2019-01-27T05:07:41.153Z,97680.82
2019-01-27T05:12:37.180Z,97674.63
2019-01-27T05:17:33.104Z,97662.70
2019-01-27T05:22:29.107Z,97658.32
2019-01-27T05:27:25.477Z,97643.59
2019-01-27T05:32:21.621Z,97643.05
2019-01-27T05:37:17.526Z,97626.98
2019-01-27T05:42:13.431Z,97620.17
2019-01-27T05:47:09.438Z,97614.95
2019-01-27T05:52:05.457Z,97604.23
2019-01-27T05:57:01.472Z,97606.98
2019-01-27T06:01:57.379Z,97603.08
2019-01-27T06:06:53.293Z,97597.97
2019-01-27T06:11:49.341Z,97592.30
2019-01-27T06:16:45.244Z,97586.95
2019-01-27T06:21:41.150Z,97579.28
2019-01-27T06:26:37.056Z,97575.23
2019-01-27T06:31:32.960Z,97562.92
2019-01-27T06:36:28.869Z,97561.70
2019-01-27T06:41:24.871Z,97554.38
2019-01-27T06:46:20.777Z,97550.06
2019-01-27T06:51:16.921Z,97550.12
2019-01-27T06:56:12.865Z,97551.23
2019-01-27T07:01:10.746Z,97547.84
2019-01-27T07:06:08.567Z,97540.48
2019-01-27T07:11:18.483Z,97531.47
2019-01-27T07:16:22.358Z,97522.34
2019-01-27T07:21:20.166Z,97517.58
2019-01-27T07:26:18.081Z,97496.34
2019-01-27T07:31:16.124Z,97504.24
2019-01-27T07:36:16.717Z,97499.48
2019-01-27T07:41:31.326Z,97494.94
2019-01-27T07:46:32.152Z,97492.19
2019-01-27T07:51:30.020Z,97484.51
2019-01-27T07:56:28.008Z,97486.09
2019-01-27T08:01:26.787Z,97490.72
2019-01-27T08:06:30.644Z,97479.05
2019-01-27T08:11:31.495Z,97475.45
2019-01-27T08:16:45.898Z,97472.98
2019-01-27T08:21:58.773Z,97477.42
2019-01-27T08:27:02.415Z,97473.30
2019-01-27T08:32:00.250Z,97467.02
2019-01-27T08:37:16.426Z,97475.41
2019-01-27T08:42:26.378Z,97460.50
2019-01-27T08:47:22.353Z,97468.43
2019-01-27T08:52:18.304Z,97464.11
2019-01-27T08:57:14.243Z,97443.98
2019-01-27T09:02:29.530Z,97441.98
2019-01-27T09:07:29.961Z,97443.35
2019-01-27T09:12:30.900Z,97437.91
2019-01-27T09:17:45.487Z,97432.94
2019-01-27T09:22:46.378Z,97430.66
2019-01-27T09:27:47.234Z,97433.36
2019-01-27T09:32:54.272Z,97431.55
2019-01-27T09:37:54.922Z,97429.80
2019-01-27T09:43:09.551Z,97427.01
2019-01-27T09:48:25.569Z,97415.80
2019-01-27T09:53:23.486Z,97421.53
2019-01-27T09:58:24.534Z,97416.38
2019-01-27T10:03:38.960Z,97420.36
2019-01-27T10:08:39.360Z,97414.12
2019-01-27T10:13:42.986Z,97414.95
2019-01-27T10:18:57.557Z,97407.39
2019-01-27T10:23:55.449Z,97400.71
2019-01-27T10:34:21.115Z,97391.54
2019-01-27T10:39:35.631Z,97392.39
2019-01-27T10:44:46.284Z,97372.04
2019-01-27T10:49:47.044Z,97372.02
2019-01-27T10:54:47.609Z,97368.50
2019-01-27T10:59:45.424Z,97362.25
2019-01-27T11:04:51.774Z,97358.58
2019-01-27T11:09:57.282Z,97354.66
2019-01-27T11:14:58.942Z,97347.57
2019-01-27T11:19:59.456Z,97340.74
2019-01-27T11:30:07.301Z,97323.94
2019-01-27T11:35:08.611Z,97326.33
2019-01-27T11:40:25.824Z,97316.39
2019-01-27T11:45:23.625Z,97313.02
2019-01-27T11:50:25.406Z,97305.09
2019-01-27T11:55:21.418Z,97300.12
2019-01-27T12:00:19.431Z,97297.45
2019-01-27T12:05:15.900Z,97289.35
2019-01-27T12:10:14.866Z,97283.08
2019-01-27T12:15:14.275Z,97282.25
2019-01-27T12:20:11.288Z,97277.30
2019-01-27T12:25:10.501Z,97275.49
2019-01-27T12:30:11.039Z,97269.70
2019-01-27T12:35:07.912Z,97263.70
2019-01-27T12:40:07.634Z,97262.17
2019-01-27T12:45:07.709Z,97255.33
2019-01-27T12:50:07.519Z,97260.26
2019-01-27T12:55:06.473Z,97256.03
2019-01-27T13:00:24.109Z,97247.98
2019-01-27T13:05:20.075Z,97241.18
2019-01-27T13:10:16.243Z,97233.87
2019-01-27T13:15:18.033Z,97240.98
2019-01-27T13:20:14.015Z,97239.36
2019-01-27T13:25:38.704Z,97240.64
2019-01-27T13:30:34.586Z,97241.13
2019-01-27T13:35:30.498Z,97233.25
2019-01-27T13:40:26.535Z,97231.43
2019-01-27T13:45:30.971Z,97232.16
2019-01-27T13:50:28.117Z,97230.05
2019-01-27T13:55:31.488Z,97224.31
2019-01-27T14:00:38.165Z,97232.89
2019-01-27T14:05:34.291Z,97227.65
2019-01-27T14:10:32.262Z,97225.31
2019-01-27T14:15:35.418Z,97220.83
2019-01-27T14:20:33.403Z,97229.20
2019-01-27T14:25:30.274Z,97235.96
2019-01-27T14:30:39.247Z,97231.41
2019-01-27T14:35:35.448Z,97232.70
2019-01-27T14:40:31.453Z,97243.09
2019-01-27T14:45:29.827Z,97250.09
2019-01-27T14:50:37.840Z,97243.55
2019-01-27T14:55:33.846Z,97251.38
2019-01-27T15:00:36.625Z,97244.34
2019-01-27T15:05:33.845Z,97242.73
2019-01-27T15:10:30.947Z,97251.48
2019-01-27T15:15:29.598Z,97249.89
2019-01-27T15:20:35.244Z,97247.28
2019-01-27T15:25:32.387Z,97247.53
2019-01-27T15:30:53.080Z,97249.81
2019-01-27T15:35:48.974Z,97256.56
2019-01-27T15:40:44.985Z,97260.72
2019-01-27T15:45:40.886Z,97263.06
2019-01-27T15:50:36.877Z,97268.25
2019-01-27T15:55:35.384Z,97267.72
2019-01-27T16:00:31.396Z,97272.97
2019-01-27T16:05:27.304Z,97267.52
2019-01-27T16:10:24.434Z,97274.34
2019-01-27T16:15:23.769Z,97282.23
2019-01-27T16:20:19.845Z,97288.20
2019-01-27T16:25:15.728Z,97290.03
2019-01-27T16:30:29.442Z,97300.22
2019-01-27T16:35:26.133Z,97304.89
2019-01-27T16:40:22.027Z,97309.08
2019-01-27T16:45:18.038Z,97316.98
2019-01-27T16:50:15.110Z,97321.64
2019-01-27T16:55:18.994Z,97323.56
2019-01-27T17:00:20.208Z,97322.75
2019-01-27T17:05:16.436Z,97326.89
2019-01-27T17:10:15.778Z,97345.64
2019-01-27T17:15:14.672Z,97358.03
2019-01-27T17:20:19.436Z,97362.66
2019-01-27T17:25:16.335Z,97361.31
2019-01-27T17:30:16.012Z,97378.87
2019-01-27T17:35:13.629Z,97388.36
2019-01-27T17:40:15.454Z,97399.84
2019-01-27T17:45:23.782Z,97408.78
2019-01-27T17:50:20.903Z,97415.84
2019-01-27T17:55:38.818Z,97422.27
2019-01-27T18:00:36.797Z,97436.52
2019-01-27T18:05:37.602Z,97448.34
2019-01-27T18:10:35.410Z,97458.30
2019-01-27T18:15:31.449Z,97467.12
2019-01-27T18:20:27.319Z,97476.38
2019-01-27T18:25:23.325Z,97481.03
2019-01-27T18:30:19.932Z,97484.94
2019-01-27T18:35:15.925Z,97489.98
2019-01-27T18:40:12.958Z,97504.03
2019-01-27T18:45:12.827Z,97506.59
2019-01-27T18:50:11.601Z,97510.98
2019-01-27T18:55:28.236Z,97523.73
2019-01-27T19:00:43.094Z,97534.59
2019-01-27T19:05:43.886Z,97537.41
2019-01-27T19:10:53.579Z,97542.09
2019-01-27T19:21:01.510Z,97564.50
2019-01-27T19:25:59.355Z,97570.77
2019-01-27T19:30:57.156Z,97568.70
2019-01-27T19:35:57.685Z,97565.80
2019-01-27T19:41:04.262Z,97578.75
2019-01-27T19:46:05.183Z,97581.44
2019-01-27T19:51:03.099Z,97584.68
2019-01-27T19:56:09.762Z,97593.19
2019-01-27T20:01:19.834Z,97599.63
2019-01-27T20:06:20.774Z,97599.81
2019-01-27T20:11:18.716Z,97608.36
2019-01-27T20:16:16.563Z,97614.89
2019-01-27T20:21:20.139Z,97617.73
2019-01-27T20:26:18.280Z,97623.02
2019-01-27T20:31:16.151Z,97632.13
2019-01-27T20:36:13.974Z,97633.42
2019-01-27T20:41:23.836Z,97643.37
2019-01-27T20:46:33.979Z,97634.98
2019-01-27T20:51:46.864Z,97640.75
2019-01-27T20:56:44.998Z,97635.49
2019-01-27T21:07:01.615Z,97644.17
2019-01-27T21:12:16.372Z,97651.39
2019-01-27T21:17:26.116Z,97650.55
2019-01-27T21:22:22.534Z,97656.03
2019-01-27T21:27:18.592Z,97662.00
2019-01-27T21:32:14.559Z,97663.30
2019-01-27T21:37:10.567Z,97666.52
2019-01-27T21:42:06.471Z,97664.14
2019-01-27T21:47:03.478Z,97665.02
2019-01-27T21:51:59.585Z,97667.17
2019-01-27T21:56:55.561Z,97676.85
2019-01-27T22:01:51.632Z,97672.36
2019-01-27T22:06:47.561Z,97669.59
2019-01-27T22:11:43.591Z,97675.52
2019-01-27T22:16:39.508Z,97679.88
2019-01-27T22:21:35.660Z,97679.71
2019-01-27T22:26:31.569Z,97675.26
2019-01-27T22:31:27.476Z,97678.25
2019-01-27T22:36:23.380Z,97673.21
2019-01-27T22:41:19.400Z,97674.52
2019-01-27T22:46:15.723Z,97675.23
2019-01-27T22:51:11.756Z,97666.68
2019-01-27T22:56:07.664Z,97668.77
2019-01-27T23:01:05.030Z,97663.11
2019-01-27T23:06:01.043Z,97671.81
2019-01-27T23:10:56.950Z,97673.25
2019-01-27T23:15:52.854Z,97675.06
2019-01-27T23:20:48.753Z,97678.31
2019-01-27T23:25:44.709Z,97676.08
2019-01-27T23:30:40.732Z,97680.03
2019-01-27T23:35:36.743Z,97680.36
2019-01-27T23:40:32.703Z,97688.45
2019-01-27T23:45:28.607Z,97683.19
2019-01-27T23:50:24.516Z,97695.55
2019-01-27T23:55:20.416Z,97687.91
